sensor_id;sensor_type;location;lat;lon;timestamp;temperature;humidity
27922;DHT22;15261;50.356;10.340;2022-09-09T09:07:54;19.30;99.90
27922;DHT22;15261;50.356;10.340;2022-09-09T09:18:44;19.00;99.90
27922;DHT22;15261;50.356;10.340;2022-09-09T09:21:32;19.10;99.90
27922;DHT22;15261;50.356;10.340;2022-09-09T09:39:33;20.10;99.90
27922;DHT22;15261;50.356;10.340;2022-09-09T09:42:12;20.20;99.90
27922;DHT22;15261;50.356;10.340;2022-09-09T09:44:41;20.40;99.90
27922;DHT22;15261;50.356;10.340;2022-09-09T09:53:04;21.00;99.90
27922;DHT22;15261;50.356;10.340;2022-09-09T10:05:31;21.70;99.90
27922;DHT22;15261;50.356;10.340;2022-09-09T10:08:10;21.60;99.90
27922;DHT22;15261;50.356;10.340;2022-09-09T10:14:19;21.30;99.90
27922;DHT22;15261;50.356;10.340;2022-09-09T10:23:07;21.70;99.90
27922;DHT22;15261;50.356;10.340;2022-09-09T10:35:40;21.30;99.90
27922;DHT22;15261;50.356;10.340;2022-09-09T10:55:55;21.70;99.90
27922;DHT22;15261;50.356;10.340;2022-09-09T10:58:49;21.40;99.90
27922;DHT22;15261;50.356;10.340;2022-09-09T11:01:27;21.50;99.90
27922;DHT22;15261;50.356;10.340;2022-09-09T11:04:04;21.30;99.90
27922;DHT22;15261;50.356;10.340;2022-09-09T11:06:37;21.10;99.90
27922;DHT22;15261;50.356;10.340;2022-09-09T11:09:15;20.90;99.90
27922;DHT22;15261;50.356;10.340;2022-09-09T11:11:52;20.60;99.90
27922;DHT22;15261;50.356;10.340;2022-09-09T11:17:44;20.10;99.90
27922;DHT22;15261;50.356;10.340;2022-09-09T11:20:14;19.80;99.90
27922;DHT22;15261;50.356;10.340;2022-09-09T11:22:46;19.80;99.90
27922;DHT22;15261;50.356;10.340;2022-09-09T11:32:12;19.90;99.90
27922;DHT22;15261;50.356;10.340;2022-09-09T11:40:41;19.80;99.90
27922;DHT22;15261;50.356;10.340;2022-09-09T11:43:18;19.80;99.90
27922;DHT22;15261;50.356;10.340;2022-09-09T11:45:58;19.90;99.90
27922;DHT22;15261;50.356;10.340;2022-09-09T11:51:33;20.40;99.90
27922;DHT22;15261;50.356;10.340;2022-09-09T11:54:00;20.70;99.90
27922;DHT22;15261;50.356;10.340;2022-09-09T11:56:30;20.80;99.90
27922;DHT22;15261;50.356;10.340;2022-09-09T11:59:00;21.10;99.90
27922;DHT22;15261;50.356;10.340;2022-09-09T12:01:34;21.10;99.90
27922;DHT22;15261;50.356;10.340;2022-09-09T12:04:13;21.10;99.90
27922;DHT22;15261;50.356;10.340;2022-09-09T12:12:44;20.80;99.90
27922;DHT22;15261;50.356;10.340;2022-09-09T12:18:42;20.30;99.90
27922;DHT22;15261;50.356;10.340;2022-09-09T12:27:40;20.90;99.90
27922;DHT22;15261;50.356;10.340;2022-09-09T12:30:19;21.60;99.90
27922;DHT22;15261;50.356;10.340;2022-09-09T12:32:46;22.00;99.90
27922;DHT22;15261;50.356;10.340;2022-09-09T12:35:21;22.10;99.90
27922;DHT22;15261;50.356;10.340;2022-09-09T12:37:58;22.20;99.90
27922;DHT22;15261;50.356;10.340;2022-09-09T12:40:33;22.30;99.90
27922;DHT22;15261;50.356;10.340;2022-09-09T12:43:17;22.00;99.90
27922;DHT22;15261;50.356;10.340;2022-09-09T12:46:02;21.60;99.90
27922;DHT22;15261;50.356;10.340;2022-09-09T12:48:37;21.20;99.90
27922;DHT22;15261;50.356;10.340;2022-09-09T12:51:07;20.90;99.90
27922;DHT22;15261;50.356;10.340;2022-09-09T12:53:41;20.60;99.90
27922;DHT22;15261;50.356;10.340;2022-09-09T12:56:09;20.50;99.90
27922;DHT22;15261;50.356;10.340;2022-09-09T12:58:49;20.40;99.90
27922;DHT22;15261;50.356;10.340;2022-09-09T13:01:26;20.20;99.90
27922;DHT22;15261;50.356;10.340;2022-09-09T13:03:52;20.30;99.90
27922;DHT22;15261;50.356;10.340;2022-09-09T13:06:29;20.40;99.90
27922;DHT22;15261;50.356;10.340;2022-09-09T13:09:00;20.60;99.90
27922;DHT22;15261;50.356;10.340;2022-09-09T13:11:35;20.80;99.90
27922;DHT22;15261;50.356;10.340;2022-09-09T13:14:02;20.90;99.90
27922;DHT22;15261;50.356;10.340;2022-09-09T13:16:32;21.10;99.90
27922;DHT22;15261;50.356;10.340;2022-09-09T13:19:14;21.20;99.90
27922;DHT22;15261;50.356;10.340;2022-09-09T13:21:47;21.40;99.90
27922;DHT22;15261;50.356;10.340;2022-09-09T13:24:33;21.60;99.90
27922;DHT22;15261;50.356;10.340;2022-09-09T13:27:02;21.70;99.90
27922;DHT22;15261;50.356;10.340;2022-09-09T13:29:29;21.80;99.40
27922;DHT22;15261;50.356;10.340;2022-09-09T13:32:18;22.10;99.60
27922;DHT22;15261;50.356;10.340;2022-09-09T13:35:00;22.60;98.70
27922;DHT22;15261;50.356;10.340;2022-09-09T13:37:37;23.00;98.30
27922;DHT22;15261;50.356;10.340;2022-09-09T13:40:05;23.20;97.30
27922;DHT22;15261;50.356;10.340;2022-09-09T13:42:40;23.00;97.70
27922;DHT22;15261;50.356;10.340;2022-09-09T13:45:20;22.90;97.40
27922;DHT22;15261;50.356;10.340;2022-09-09T13:48:09;22.70;97.60
27922;DHT22;15261;50.356;10.340;2022-09-09T13:50:35;22.60;99.10
27922;DHT22;15261;50.356;10.340;2022-09-09T13:53:00;22.50;96.40
27922;DHT22;15261;50.356;10.340;2022-09-09T13:55:28;22.50;95.40
27922;DHT22;15261;50.356;10.340;2022-09-09T13:57:59;22.50;96.70
27922;DHT22;15261;50.356;10.340;2022-09-09T14:00:27;22.60;95.60
27922;DHT22;15261;50.356;10.340;2022-09-09T14:02:54;22.60;95.10
27922;DHT22;15261;50.356;10.340;2022-09-09T14:05:21;22.60;94.10
27922;DHT22;15261;50.356;10.340;2022-09-09T14:07:48;22.60;94.00
27922;DHT22;15261;50.356;10.340;2022-09-09T14:10:14;22.60;93.20
27922;DHT22;15261;50.356;10.340;2022-09-09T14:12:40;22.60;93.20
27922;DHT22;15261;50.356;10.340;2022-09-09T14:15:06;22.50;92.60
27922;DHT22;15261;50.356;10.340;2022-09-09T14:17:32;22.40;93.00
27922;DHT22;15261;50.356;10.340;2022-09-09T14:20:08;22.30;91.90
27922;DHT22;15261;50.356;10.340;2022-09-09T14:22:36;22.00;91.50
27922;DHT22;15261;50.356;10.340;2022-09-09T14:25:02;21.80;91.70
27922;DHT22;15261;50.356;10.340;2022-09-09T14:27:28;21.70;92.50
27922;DHT22;15261;50.356;10.340;2022-09-09T14:33:17;21.80;95.50
27922;DHT22;15261;50.356;10.340;2022-09-09T14:35:42;21.50;97.30
27922;DHT22;15261;50.356;10.340;2022-09-09T14:38:09;21.20;99.00
27922;DHT22;15261;50.356;10.340;2022-09-09T14:40:35;20.90;99.90
27922;DHT22;15261;50.356;10.340;2022-09-09T14:43:21;20.60;99.90
27922;DHT22;15261;50.356;10.340;2022-09-09T14:45:46;20.40;99.90
27922;DHT22;15261;50.356;10.340;2022-09-09T14:48:14;20.20;99.90
27922;DHT22;15261;50.356;10.340;2022-09-09T14:50:40;20.10;99.90
27922;DHT22;15261;50.356;10.340;2022-09-09T14:53:06;20.10;99.90
27922;DHT22;15261;50.356;10.340;2022-09-09T14:55:32;20.10;99.90
27922;DHT22;15261;50.356;10.340;2022-09-09T14:57:58;20.20;99.00
27922;DHT22;15261;50.356;10.340;2022-09-09T15:00:24;20.20;98.70
27922;DHT22;15261;50.356;10.340;2022-09-09T15:02:55;20.20;98.90
27922;DHT22;15261;50.356;10.340;2022-09-09T15:05:21;20.30;99.00
27922;DHT22;15261;50.356;10.340;2022-09-09T15:07:47;20.30;97.40
27922;DHT22;15261;50.356;10.340;2022-09-09T15:10:14;20.30;98.30
27922;DHT22;15261;50.356;10.340;2022-09-09T15:12:40;20.30;98.70
27922;DHT22;15261;50.356;10.340;2022-09-09T15:15:07;20.20;98.80
27922;DHT22;15261;50.356;10.340;2022-09-09T15:17:33;20.30;99.30
27922;DHT22;15261;50.356;10.340;2022-09-09T15:19:58;20.30;99.30
27922;DHT22;15261;50.356;10.340;2022-09-09T15:22:24;20.30;99.30
27922;DHT22;15261;50.356;10.340;2022-09-09T15:24:50;20.30;99.30
27922;DHT22;15261;50.356;10.340;2022-09-09T15:27:16;20.40;99.20
27922;DHT22;15261;50.356;10.340;2022-09-09T15:29:42;20.50;99.90
27922;DHT22;15261;50.356;10.340;2022-09-09T15:32:07;20.60;99.30
27922;DHT22;15261;50.356;10.340;2022-09-09T15:34:33;20.70;98.40
27922;DHT22;15261;50.356;10.340;2022-09-09T15:36:59;20.80;97.50
27922;DHT22;15261;50.356;10.340;2022-09-09T15:39:25;20.80;97.20
27922;DHT22;15261;50.356;10.340;2022-09-09T15:41:51;20.70;96.80
27922;DHT22;15261;50.356;10.340;2022-09-09T15:44:17;20.50;97.60
27922;DHT22;15261;50.356;10.340;2022-09-09T15:46:49;20.40;97.70
27922;DHT22;15261;50.356;10.340;2022-09-09T15:49:18;20.30;98.60
27922;DHT22;15261;50.356;10.340;2022-09-09T15:51:45;20.20;98.60
27922;DHT22;15261;50.356;10.340;2022-09-09T15:54:16;20.00;99.30
27922;DHT22;15261;50.356;10.340;2022-09-09T15:56:43;19.90;99.80
27922;DHT22;15261;50.356;10.340;2022-09-09T15:59:09;19.80;99.90
27922;DHT22;15261;50.356;10.340;2022-09-09T16:01:35;19.70;99.90
27922;DHT22;15261;50.356;10.340;2022-09-09T16:04:01;19.60;99.90
27922;DHT22;15261;50.356;10.340;2022-09-09T16:06:28;19.50;99.90
27922;DHT22;15261;50.356;10.340;2022-09-09T16:08:55;19.40;99.90
27922;DHT22;15261;50.356;10.340;2022-09-09T16:11:29;19.40;99.90
27922;DHT22;15261;50.356;10.340;2022-09-09T16:13:56;19.40;99.90
27922;DHT22;15261;50.356;10.340;2022-09-09T16:16:25;19.50;99.60
27922;DHT22;15261;50.356;10.340;2022-09-09T16:18:53;19.60;99.10
27922;DHT22;15261;50.356;10.340;2022-09-09T16:21:35;19.60;99.90
27922;DHT22;15261;50.356;10.340;2022-09-09T16:24:03;19.60;98.60
27922;DHT22;15261;50.356;10.340;2022-09-09T16:26:31;19.70;98.00
27922;DHT22;15261;50.356;10.340;2022-09-09T16:28:57;19.60;97.50
27922;DHT22;15261;50.356;10.340;2022-09-09T16:31:25;19.60;97.50
27922;DHT22;15261;50.356;10.340;2022-09-09T16:33:51;19.60;97.40
27922;DHT22;15261;50.356;10.340;2022-09-09T16:36:19;19.60;97.30
27922;DHT22;15261;50.356;10.340;2022-09-09T16:38:45;19.40;97.50
27922;DHT22;15261;50.356;10.340;2022-09-09T16:41:12;19.40;97.60
27922;DHT22;15261;50.356;10.340;2022-09-09T16:43:38;19.20;98.00
27922;DHT22;15261;50.356;10.340;2022-09-09T16:46:17;19.20;98.50
27922;DHT22;15261;50.356;10.340;2022-09-09T16:48:44;19.00;99.00
27922;DHT22;15261;50.356;10.340;2022-09-09T16:51:21;18.90;99.10
27922;DHT22;15261;50.356;10.340;2022-09-09T16:53:49;18.80;99.70
27922;DHT22;15261;50.356;10.340;2022-09-09T16:56:17;18.70;99.90
27922;DHT22;15261;50.356;10.340;2022-09-09T16:58:48;18.70;99.90
27922;DHT22;15261;50.356;10.340;2022-09-09T17:01:14;18.60;99.90
27922;DHT22;15261;50.356;10.340;2022-09-09T17:03:40;18.50;99.90
27922;DHT22;15261;50.356;10.340;2022-09-09T17:06:14;18.50;99.90
27922;DHT22;15261;50.356;10.340;2022-09-09T17:08:40;18.30;99.90
27922;DHT22;15261;50.356;10.340;2022-09-09T17:11:16;18.30;99.90
27922;DHT22;15261;50.356;10.340;2022-09-09T17:13:44;18.20;99.90
27922;DHT22;15261;50.356;10.340;2022-09-09T17:16:11;18.20;99.90
27922;DHT22;15261;50.356;10.340;2022-09-09T17:18:37;18.20;99.90
27922;DHT22;15261;50.356;10.340;2022-09-09T17:21:07;18.10;99.90
27922;DHT22;15261;50.356;10.340;2022-09-09T17:23:34;18.10;99.90
27922;DHT22;15261;50.356;10.340;2022-09-09T17:26:04;18.00;99.90
27922;DHT22;15261;50.356;10.340;2022-09-09T17:28:30;17.90;99.90
27922;DHT22;15261;50.356;10.340;2022-09-09T17:30:57;17.80;99.90
27922;DHT22;15261;50.356;10.340;2022-09-09T17:33:25;17.70;99.90
27922;DHT22;15261;50.356;10.340;2022-09-09T17:35:52;17.50;99.90
27922;DHT22;15261;50.356;10.340;2022-09-09T17:38:18;17.40;99.90
27922;DHT22;15261;50.356;10.340;2022-09-09T17:40:44;17.30;99.90
27922;DHT22;15261;50.356;10.340;2022-09-09T17:43:09;17.30;99.90
27922;DHT22;15261;50.356;10.340;2022-09-09T17:45:35;17.10;99.90
27922;DHT22;15261;50.356;10.340;2022-09-09T17:48:01;17.00;99.90
27922;DHT22;15261;50.356;10.340;2022-09-09T17:50:28;17.00;99.90
27922;DHT22;15261;50.356;10.340;2022-09-09T17:52:53;16.90;99.90
27922;DHT22;15261;50.356;10.340;2022-09-09T17:55:19;16.80;99.90
27922;DHT22;15261;50.356;10.340;2022-09-09T17:57:45;16.70;99.90
27922;DHT22;15261;50.356;10.340;2022-09-09T18:00:11;16.70;99.90
27922;DHT22;15261;50.356;10.340;2022-09-09T18:02:37;16.60;99.90
27922;DHT22;15261;50.356;10.340;2022-09-09T18:05:03;16.50;99.90
27922;DHT22;15261;50.356;10.340;2022-09-09T18:07:29;16.40;99.90
27922;DHT22;15261;50.356;10.340;2022-09-09T18:09:54;16.40;99.90
27922;DHT22;15261;50.356;10.340;2022-09-09T18:12:20;16.40;99.90
27922;DHT22;15261;50.356;10.340;2022-09-09T18:14:45;16.40;99.90
27922;DHT22;15261;50.356;10.340;2022-09-09T18:17:12;16.30;99.90
27922;DHT22;15261;50.356;10.340;2022-09-09T18:19:38;16.20;99.90
27922;DHT22;15261;50.356;10.340;2022-09-09T18:22:04;16.20;99.90
27922;DHT22;15261;50.356;10.340;2022-09-09T18:24:31;16.10;99.90
27922;DHT22;15261;50.356;10.340;2022-09-09T18:26:57;16.10;99.90
27922;DHT22;15261;50.356;10.340;2022-09-09T18:29:24;16.00;99.90
27922;DHT22;15261;50.356;10.340;2022-09-09T18:31:51;16.00;99.90
27922;DHT22;15261;50.356;10.340;2022-09-09T18:34:18;16.00;99.90
27922;DHT22;15261;50.356;10.340;2022-09-09T18:36:46;16.00;99.90
27922;DHT22;15261;50.356;10.340;2022-09-09T18:42:34;15.90;99.90
27922;DHT22;15261;50.356;10.340;2022-09-09T18:44:59;15.90;99.90
27922;DHT22;15261;50.356;10.340;2022-09-09T18:47:25;15.80;99.90
27922;DHT22;15261;50.356;10.340;2022-09-09T18:49:50;15.80;99.90
27922;DHT22;15261;50.356;10.340;2022-09-09T18:52:16;15.70;99.90
27922;DHT22;15261;50.356;10.340;2022-09-09T18:54:50;15.60;99.90
27922;DHT22;15261;50.356;10.340;2022-09-09T18:57:15;15.60;99.90
27922;DHT22;15261;50.356;10.340;2022-09-09T18:59:43;15.60;99.90
27922;DHT22;15261;50.356;10.340;2022-09-09T19:02:08;15.60;99.90
27922;DHT22;15261;50.356;10.340;2022-09-09T19:04:37;15.60;99.90
27922;DHT22;15261;50.356;10.340;2022-09-09T19:07:03;15.60;99.90
27922;DHT22;15261;50.356;10.340;2022-09-09T19:12:50;15.60;99.90
27922;DHT22;15261;50.356;10.340;2022-09-09T19:15:16;15.60;99.90
27922;DHT22;15261;50.356;10.340;2022-09-09T19:17:42;15.70;99.90
27922;DHT22;15261;50.356;10.340;2022-09-09T19:20:08;15.70;99.90
27922;DHT22;15261;50.356;10.340;2022-09-09T19:22:33;15.70;99.90
27922;DHT22;15261;50.356;10.340;2022-09-09T19:25:17;15.70;99.90
27922;DHT22;15261;50.356;10.340;2022-09-09T19:27:43;15.60;99.90
27922;DHT22;15261;50.356;10.340;2022-09-09T19:30:15;15.60;99.90
27922;DHT22;15261;50.356;10.340;2022-09-09T19:32:41;15.50;99.90
27922;DHT22;15261;50.356;10.340;2022-09-09T19:35:08;15.50;99.90
27922;DHT22;15261;50.356;10.340;2022-09-09T19:37:34;15.40;99.90
27922;DHT22;15261;50.356;10.340;2022-09-09T19:40:00;15.40;99.90
27922;DHT22;15261;50.356;10.340;2022-09-09T19:42:41;15.30;99.90
27922;DHT22;15261;50.356;10.340;2022-09-09T19:45:15;15.30;99.90
27922;DHT22;15261;50.356;10.340;2022-09-09T19:48:04;15.20;99.90
27922;DHT22;15261;50.356;10.340;2022-09-09T19:50:34;15.10;99.90
27922;DHT22;15261;50.356;10.340;2022-09-09T19:53:27;15.00;99.90
27922;DHT22;15261;50.356;10.340;2022-09-09T19:56:12;15.00;99.90
27922;DHT22;15261;50.356;10.340;2022-09-09T19:58:40;14.90;99.90
27922;DHT22;15261;50.356;10.340;2022-09-09T20:01:35;14.90;99.90
27922;DHT22;15261;50.356;10.340;2022-09-09T20:04:17;14.80;99.90
27922;DHT22;15261;50.356;10.340;2022-09-09T20:06:45;14.70;99.90
27922;DHT22;15261;50.356;10.340;2022-09-09T20:09:23;14.70;99.90
27922;DHT22;15261;50.356;10.340;2022-09-09T20:11:58;14.60;99.90
27922;DHT22;15261;50.356;10.340;2022-09-09T20:14:33;14.50;99.90
27922;DHT22;15261;50.356;10.340;2022-09-09T20:17:00;14.50;99.90
27922;DHT22;15261;50.356;10.340;2022-09-09T20:19:39;14.50;99.90
27922;DHT22;15261;50.356;10.340;2022-09-09T20:22:06;14.50;99.90
27922;DHT22;15261;50.356;10.340;2022-09-09T20:24:51;14.50;99.90
27922;DHT22;15261;50.356;10.340;2022-09-09T20:27:33;14.50;99.90
27922;DHT22;15261;50.356;10.340;2022-09-09T20:29:58;14.50;99.90
27922;DHT22;15261;50.356;10.340;2022-09-09T20:32:24;14.40;99.90
27922;DHT22;15261;50.356;10.340;2022-09-09T20:37:42;14.40;99.90
27922;DHT22;15261;50.356;10.340;2022-09-09T20:40:20;14.40;99.90
27922;DHT22;15261;50.356;10.340;2022-09-09T20:42:50;14.40;99.90
27922;DHT22;15261;50.356;10.340;2022-09-09T20:45:16;14.50;99.90
27922;DHT22;15261;50.356;10.340;2022-09-09T20:47:42;14.50;99.90
27922;DHT22;15261;50.356;10.340;2022-09-09T20:50:08;14.60;99.90
27922;DHT22;15261;50.356;10.340;2022-09-09T20:52:34;14.70;99.90
27922;DHT22;15261;50.356;10.340;2022-09-09T20:55:00;14.80;99.90
27922;DHT22;15261;50.356;10.340;2022-09-09T20:57:25;14.80;99.90
27922;DHT22;15261;50.356;10.340;2022-09-09T20:59:51;14.80;99.90
27922;DHT22;15261;50.356;10.340;2022-09-09T21:02:17;14.80;99.90
27922;DHT22;15261;50.356;10.340;2022-09-09T21:04:43;14.80;99.90
27922;DHT22;15261;50.356;10.340;2022-09-09T21:07:09;14.80;99.90
27922;DHT22;15261;50.356;10.340;2022-09-09T21:09:35;14.70;99.90
27922;DHT22;15261;50.356;10.340;2022-09-09T21:15:22;14.60;99.90
27922;DHT22;15261;50.356;10.340;2022-09-09T21:17:48;14.70;99.90
27922;DHT22;15261;50.356;10.340;2022-09-09T21:20:14;14.70;99.90
27922;DHT22;15261;50.356;10.340;2022-09-09T21:22:40;14.70;99.90
27922;DHT22;15261;50.356;10.340;2022-09-09T21:25:06;14.80;99.90
27922;DHT22;15261;50.356;10.340;2022-09-09T21:27:32;14.80;99.90
27922;DHT22;15261;50.356;10.340;2022-09-09T21:29:57;14.80;99.90
27922;DHT22;15261;50.356;10.340;2022-09-09T21:32:23;14.80;99.90
27922;DHT22;15261;50.356;10.340;2022-09-09T21:41:41;14.80;99.90
27922;DHT22;15261;50.356;10.340;2022-09-09T21:44:06;14.80;99.90
27922;DHT22;15261;50.356;10.340;2022-09-09T21:46:33;14.80;99.90
27922;DHT22;15261;50.356;10.340;2022-09-09T21:48:59;14.70;99.90
27922;DHT22;15261;50.356;10.340;2022-09-09T21:51:27;14.70;99.90
27922;DHT22;15261;50.356;10.340;2022-09-09T21:53:54;14.80;99.90
27922;DHT22;15261;50.356;10.340;2022-09-09T21:56:20;14.80;99.90
27922;DHT22;15261;50.356;10.340;2022-09-09T21:58:46;14.80;99.90
27922;DHT22;15261;50.356;10.340;2022-09-09T22:01:17;14.90;99.90
27922;DHT22;15261;50.356;10.340;2022-09-09T22:03:45;14.80;99.90
27922;DHT22;15261;50.356;10.340;2022-09-09T22:06:12;14.80;99.90
27922;DHT22;15261;50.356;10.340;2022-09-09T22:08:39;14.80;99.90
27922;DHT22;15261;50.356;10.340;2022-09-09T22:11:06;14.80;99.90
27922;DHT22;15261;50.356;10.340;2022-09-09T22:14:10;14.90;99.90
27922;DHT22;15261;50.356;10.340;2022-09-09T22:16:35;14.90;99.90
27922;DHT22;15261;50.356;10.340;2022-09-09T22:19:01;14.90;99.90
27922;DHT22;15261;50.356;10.340;2022-09-09T22:21:28;15.00;99.90
27922;DHT22;15261;50.356;10.340;2022-09-09T22:23:58;15.00;99.90
27922;DHT22;15261;50.356;10.340;2022-09-09T22:29:38;15.00;99.90
27922;DHT22;15261;50.356;10.340;2022-09-09T22:32:04;15.00;99.90
27922;DHT22;15261;50.356;10.340;2022-09-09T22:34:34;15.00;99.90
27922;DHT22;15261;50.356;10.340;2022-09-09T22:37:01;15.00;99.90
27922;DHT22;15261;50.356;10.340;2022-09-09T22:39:27;15.00;99.90
27922;DHT22;15261;50.356;10.340;2022-09-09T22:41:53;15.00;99.90
27922;DHT22;15261;50.356;10.340;2022-09-09T22:44:22;15.00;99.90
27922;DHT22;15261;50.356;10.340;2022-09-09T22:46:48;14.90;99.90
27922;DHT22;15261;50.356;10.340;2022-09-09T22:49:14;14.80;99.90
27922;DHT22;15261;50.356;10.340;2022-09-09T22:51:40;14.80;99.90
27922;DHT22;15261;50.356;10.340;2022-09-09T22:54:05;14.70;99.90
27922;DHT22;15261;50.356;10.340;2022-09-09T22:56:32;14.70;99.90
27922;DHT22;15261;50.356;10.340;2022-09-09T22:58:58;14.60;99.90
27922;DHT22;15261;50.356;10.340;2022-09-09T23:01:25;14.60;99.90
27922;DHT22;15261;50.356;10.340;2022-09-09T23:03:52;14.50;99.90
27922;DHT22;15261;50.356;10.340;2022-09-09T23:06:21;14.50;99.90
27922;DHT22;15261;50.356;10.340;2022-09-09T23:08:58;14.50;99.90
27922;DHT22;15261;50.356;10.340;2022-09-09T23:11:34;14.40;99.90
27922;DHT22;15261;50.356;10.340;2022-09-09T23:14:02;14.40;99.90
27922;DHT22;15261;50.356;10.340;2022-09-09T23:19:51;14.30;99.90
27922;DHT22;15261;50.356;10.340;2022-09-09T23:22:22;14.30;99.90
27922;DHT22;15261;50.356;10.340;2022-09-09T23:24:48;14.30;99.90
27922;DHT22;15261;50.356;10.340;2022-09-09T23:27:14;14.30;99.90
27922;DHT22;15261;50.356;10.340;2022-09-09T23:29:40;14.40;99.90
27922;DHT22;15261;50.356;10.340;2022-09-09T23:32:21;14.40;99.90
27922;DHT22;15261;50.356;10.340;2022-09-09T23:38:08;14.50;99.90
27922;DHT22;15261;50.356;10.340;2022-09-09T23:40:34;14.50;99.90
27922;DHT22;15261;50.356;10.340;2022-09-09T23:46:25;14.60;99.90
27922;DHT22;15261;50.356;10.340;2022-09-09T23:48:55;14.60;99.90
27922;DHT22;15261;50.356;10.340;2022-09-09T23:51:22;14.60;99.90
27922;DHT22;15261;50.356;10.340;2022-09-09T23:53:52;14.60;99.90
27922;DHT22;15261;50.356;10.340;2022-09-09T23:56:19;14.60;99.90
27922;DHT22;15261;50.356;10.340;2022-09-09T23:58:46;14.60;99.90
